createdAt,value
2019-04-07T00:01:15.802Z,7
2019-04-07T00:06:17.980Z,7
2019-04-07T00:11:20.458Z,6
2019-04-07T00:16:22.952Z,7
2019-04-07T00:21:25.754Z,7
2019-04-07T00:26:27.892Z,7
2019-04-07T00:31:30.330Z,7
2019-04-07T00:36:32.908Z,7
2019-04-07T00:41:35.357Z,6
2019-04-07T00:46:37.549Z,7
2019-04-07T00:51:39.942Z,7
2019-04-07T00:56:42.394Z,7
2019-04-07T01:01:45.029Z,8
2019-04-07T01:06:47.355Z,7
2019-04-07T01:11:49.721Z,7
2019-04-07T01:16:52.871Z,8
2019-04-07T01:21:54.923Z,7
2019-04-07T01:27:01.133Z,7
2019-04-07T01:31:59.506Z,8
2019-04-07T01:37:01.950Z,7
2019-04-07T01:42:04.954Z,9
2019-04-07T01:47:06.899Z,7
2019-04-07T01:52:09.209Z,7
2019-04-07T01:57:11.829Z,6
2019-04-07T02:02:14.691Z,7
2019-04-07T02:07:17.154Z,8
2019-04-07T02:12:19.743Z,9
2019-04-07T02:17:21.905Z,8
2019-04-07T02:22:23.936Z,8
2019-04-07T02:27:26.316Z,8
2019-04-07T02:32:29.240Z,8
2019-04-07T02:42:34.289Z,8
2019-04-07T02:47:36.097Z,7
2019-04-07T02:52:38.894Z,8
2019-04-07T02:57:40.957Z,9
2019-04-07T03:02:43.546Z,8
2019-04-07T03:07:47.220Z,9
2019-04-07T03:12:48.583Z,8
2019-04-07T03:17:51.818Z,9
2019-04-07T03:22:53.224Z,9
2019-04-07T03:27:55.606Z,8
2019-04-07T03:33:00.419Z,8
2019-04-07T03:38:00.881Z,8
2019-04-07T03:43:03.035Z,7
2019-04-07T03:48:06.796Z,8
2019-04-07T03:53:08.342Z,8
2019-04-07T03:58:10.295Z,8
2019-04-07T04:03:12.970Z,9
2019-04-07T04:08:15.967Z,8
2019-04-07T04:13:17.570Z,9
2019-04-07T04:18:20.484Z,9
2019-04-07T04:23:22.451Z,9
2019-04-07T04:28:24.902Z,8
2019-04-07T04:33:27.545Z,8
2019-04-07T04:38:30.037Z,8
2019-04-07T04:43:32.309Z,8
2019-04-07T04:48:35.167Z,9
2019-04-07T04:53:37.948Z,9
2019-04-07T04:58:39.594Z,9
2019-04-07T05:03:42.816Z,9
2019-04-07T05:08:44.502Z,9
2019-04-07T05:13:46.890Z,9
2019-04-07T05:18:49.311Z,9
2019-04-07T05:23:51.729Z,9
2019-04-07T05:33:56.647Z,9
2019-04-07T05:38:59.061Z,9
2019-04-07T05:44:01.503Z,9
2019-04-07T05:49:04.004Z,10
2019-04-07T05:54:07.043Z,10
2019-04-07T05:59:10.839Z,10
2019-04-07T06:04:16.681Z,10
2019-04-07T06:09:13.730Z,11
2019-04-07T06:14:16.948Z,11
2019-04-07T06:19:19.179Z,11
2019-04-07T06:24:22.143Z,11
2019-04-07T06:29:25.580Z,11
2019-04-07T06:34:26.513Z,11
2019-04-07T06:39:30.465Z,11
2019-04-07T06:44:30.789Z,11
2019-04-07T06:49:33.762Z,10
2019-04-07T06:54:35.683Z,10
2019-04-07T06:59:38.448Z,10
2019-04-07T07:04:43.045Z,9
2019-04-07T07:09:43.111Z,9
2019-04-07T07:14:46.905Z,8
2019-04-07T07:19:47.857Z,9
2019-04-07T07:24:51.188Z,9
2019-04-07T07:29:53.842Z,8
2019-04-07T07:34:55.294Z,8
2019-04-07T07:39:57.609Z,8
2019-04-07T07:45:00.055Z,8
2019-04-07T07:50:05.326Z,7
2019-04-07T07:55:05.790Z,7
2019-04-07T08:00:08.321Z,7
2019-04-07T08:05:10.372Z,8
2019-04-07T08:10:12.706Z,8
2019-04-07T08:15:14.701Z,8
2019-04-07T08:20:17.449Z,7
2019-04-07T08:25:21.702Z,7
2019-04-07T08:30:22.856Z,7
2019-04-07T08:35:24.479Z,7
2019-04-07T08:40:27.408Z,7
2019-04-07T08:45:31.617Z,7
2019-04-07T08:50:32.098Z,7
2019-04-07T08:55:34.588Z,7
2019-04-07T09:00:37.210Z,7
2019-04-07T09:05:39.850Z,7
2019-04-07T09:10:41.629Z,7
2019-04-07T09:15:44.997Z,8
2019-04-07T09:20:49.051Z,7
2019-04-07T09:25:49.207Z,7
2019-04-07T09:30:51.439Z,8
2019-04-07T09:35:56.606Z,8
2019-04-07T09:45:59.383Z,8
2019-04-07T09:51:04.826Z,7
2019-04-07T09:56:03.773Z,7
2019-04-07T10:01:07.082Z,7
2019-04-07T10:06:10.509Z,7
2019-04-07T10:11:11.769Z,7
2019-04-07T10:16:13.334Z,7
2019-04-07T10:21:15.737Z,7
2019-04-07T10:31:20.930Z,6
2019-04-07T10:36:23.031Z,7
2019-04-07T10:41:26.224Z,7
2019-04-07T10:46:28.334Z,7
2019-04-07T10:51:30.837Z,7
2019-04-07T10:56:32.775Z,7
2019-04-07T11:06:38.358Z,7
2019-04-07T11:11:41.119Z,6
2019-04-07T11:16:43.133Z,6
2019-04-07T11:21:45.311Z,5
2019-04-07T11:26:47.514Z,5
2019-04-07T11:31:50.421Z,6
2019-04-07T11:36:52.891Z,6
2019-04-07T11:41:54.986Z,5
2019-04-07T11:46:57.490Z,5
2019-04-07T11:52:00.115Z,5
2019-04-07T11:57:02.155Z,6
2019-04-07T12:02:06.735Z,5
2019-04-07T12:07:07.786Z,5
2019-04-07T12:12:09.509Z,5
2019-04-07T12:17:12.744Z,5
2019-04-07T12:22:14.411Z,5
2019-04-07T12:27:17.239Z,5
2019-04-07T12:32:19.288Z,5
2019-04-07T12:37:21.925Z,5
2019-04-07T12:42:24.048Z,4
2019-04-07T12:47:26.705Z,5
2019-04-07T12:52:31.084Z,4
2019-04-07T12:57:35.291Z,5
2019-04-07T13:02:33.848Z,4
2019-04-07T13:07:37.540Z,5
2019-04-07T13:12:38.901Z,5
2019-04-07T13:17:42.048Z,4
2019-04-07T13:22:43.590Z,5
2019-04-07T13:27:46.839Z,5
2019-04-07T13:32:52.261Z,5
2019-04-07T13:37:51.136Z,4
2019-04-07T13:42:56.545Z,4
2019-04-07T13:47:55.790Z,5
2019-04-07T13:52:59.466Z,4
2019-04-07T13:58:00.826Z,5
2019-04-07T14:03:03.122Z,5
2019-04-07T14:08:05.935Z,5
2019-04-07T14:13:08.071Z,5
2019-04-07T14:18:11.107Z,5
2019-04-07T14:23:13.188Z,5
2019-04-07T14:28:15.490Z,5
2019-04-07T14:33:17.898Z,5
2019-04-07T14:38:20.270Z,5
2019-04-07T14:43:23.468Z,5
2019-04-07T14:48:25.098Z,5
2019-04-07T14:53:27.621Z,5
2019-04-07T14:58:30.237Z,5
2019-04-07T15:03:33.196Z,6
2019-04-07T15:08:35.537Z,5
2019-04-07T15:13:37.544Z,5
2019-04-07T15:18:40.046Z,5
2019-04-07T15:23:44.053Z,4
2019-04-07T15:28:44.723Z,5
2019-04-07T15:33:47.790Z,5
2019-04-07T15:38:49.703Z,4
2019-04-07T15:43:52.781Z,5
2019-04-07T15:48:56.049Z,5
2019-04-07T15:53:56.871Z,5
2019-04-07T15:59:01.250Z,5
2019-04-07T16:04:01.725Z,5
2019-04-07T16:09:08.347Z,4
2019-04-07T16:14:10.919Z,5
2019-04-07T16:19:12.582Z,5
2019-04-07T16:24:11.538Z,5
2019-04-07T16:29:16.992Z,6
2019-04-07T16:34:16.557Z,5
2019-04-07T16:39:19.824Z,4
2019-04-07T16:44:21.530Z,4
2019-04-07T16:49:24.622Z,4
2019-04-07T16:54:26.554Z,5
2019-04-07T16:59:28.737Z,4
2019-04-07T17:04:31.110Z,4
2019-04-07T17:09:35.341Z,4
2019-04-07T17:14:36.167Z,4
2019-04-07T17:19:38.444Z,4
2019-04-07T17:24:41.010Z,5
2019-04-07T17:29:43.693Z,4
2019-04-07T17:34:46.475Z,5
2019-04-07T17:39:48.313Z,5
2019-04-07T17:44:51.632Z,5
2019-04-07T17:49:56.510Z,6
2019-04-07T17:54:55.757Z,4
2019-04-07T17:59:58.245Z,11
2019-04-07T18:05:00.329Z,10
2019-04-07T18:10:02.843Z,4
2019-04-07T18:15:07.908Z,4
2019-04-07T18:20:08.926Z,5
2019-04-07T18:25:10.518Z,6
2019-04-07T18:30:14.531Z,5
2019-04-07T18:35:15.308Z,5
2019-04-07T18:40:17.832Z,5
2019-04-07T18:45:19.910Z,5
2019-04-07T18:50:22.263Z,5
2019-04-07T18:55:26.363Z,5
2019-04-07T19:00:30.025Z,5
2019-04-07T19:05:31.509Z,4
2019-04-07T19:10:32.336Z,4
2019-04-07T19:15:36.969Z,5
2019-04-07T19:20:38.583Z,5
2019-04-07T19:25:41.899Z,5
2019-04-07T19:30:45.267Z,5
2019-04-07T19:35:44.610Z,6
2019-04-07T19:40:48.172Z,6
2019-04-07T19:45:49.847Z,6
2019-04-07T19:50:54.734Z,6
2019-04-07T19:55:55.399Z,6
2019-04-07T20:00:57.799Z,6
2019-04-07T20:05:58.916Z,6
2019-04-07T20:11:01.315Z,5
2019-04-07T20:16:04.590Z,5
2019-04-07T20:21:08.253Z,4
2019-04-07T20:26:08.790Z,5
2019-04-07T20:31:11.089Z,5
2019-04-07T20:36:19.145Z,5
2019-04-07T20:41:16.960Z,5
2019-04-07T20:46:20.720Z,6
2019-04-07T20:51:20.975Z,5
2019-04-07T20:56:23.268Z,5
2019-04-07T21:01:25.717Z,5
2019-04-07T21:06:29.982Z,4
2019-04-07T21:11:30.615Z,5
2019-04-07T21:16:33.066Z,5
2019-04-07T21:21:35.559Z,5
2019-04-07T21:26:37.927Z,5
2019-04-07T21:31:40.907Z,5
2019-04-07T21:36:43.051Z,5
2019-04-07T21:41:46.314Z,5
2019-04-07T21:46:48.421Z,5
2019-04-07T21:51:50.161Z,5
2019-04-07T21:56:52.685Z,5
2019-04-07T22:01:55.169Z,5
2019-04-07T22:06:59.483Z,5
2019-04-07T22:12:00.204Z,5
2019-04-07T22:17:02.941Z,5
2019-04-07T22:22:04.771Z,5
2019-04-07T22:27:07.279Z,5
2019-04-07T22:32:09.975Z,5
2019-04-07T22:37:12.258Z,5
2019-04-07T22:42:16.533Z,7
2019-04-07T22:47:19.654Z,5
2019-04-07T22:52:20.397Z,6
2019-04-07T22:57:21.950Z,7
2019-04-07T23:02:24.692Z,7
2019-04-07T23:07:27.567Z,7
2019-04-07T23:12:29.157Z,6
2019-04-07T23:17:32.193Z,5
2019-04-07T23:22:34.117Z,5
2019-04-07T23:27:36.570Z,6
2019-04-07T23:32:39.639Z,5
2019-04-07T23:37:41.448Z,6
2019-04-07T23:42:44.617Z,7
2019-04-07T23:47:46.914Z,6
2019-04-07T23:52:49.678Z,7
2019-04-07T23:57:51.891Z,7
